createdAt,value
2016-06-15T00:00:24.034Z,979.51
2016-06-15T00:01:24.053Z,979.55
2016-06-15T00:03:24.059Z,979.74
2016-06-15T00:04:24.062Z,979.7
2016-06-15T00:05:24.097Z,979.65
2016-06-15T00:06:24.068Z,979.68
2016-06-15T00:07:24.103Z,979.64
2016-06-15T00:08:24.309Z,979.62
2016-06-15T00:09:24.124Z,979.63
2016-06-15T00:10:24.128Z,979.63
2016-06-15T00:11:24.130Z,979.62
2016-06-15T00:12:24.134Z,979.62
2016-06-15T00:15:24.143Z,979.62
2016-06-15T00:16:24.756Z,979.58
2016-06-15T00:17:24.165Z,979.58
2016-06-15T00:18:24.387Z,979.58
2016-06-15T00:19:24.187Z,979.58
2016-06-15T00:20:24.190Z,979.59
2016-06-15T00:21:24.194Z,979.62
2016-06-15T00:22:24.196Z,979.61
2016-06-15T00:23:24.200Z,979.61
2016-06-15T00:24:24.217Z,979.58
2016-06-15T00:25:24.221Z,979.59
2016-06-15T00:26:24.223Z,979.58
2016-06-15T00:27:24.227Z,979.59
2016-06-15T00:28:24.245Z,979.54
2016-06-15T00:29:24.249Z,979.56
2016-06-15T00:30:24.251Z,979.58
2016-06-15T00:31:24.255Z,979.58
2016-06-15T00:32:24.508Z,979.59
2016-06-15T00:33:24.276Z,979.59
2016-06-15T00:34:24.279Z,979.56
2016-06-15T00:35:24.282Z,979.58
2016-06-15T00:36:24.302Z,979.59
2016-06-15T00:37:24.507Z,979.58
2016-06-15T00:38:24.307Z,979.56
2016-06-15T00:39:24.311Z,979.55
2016-06-15T00:40:24.330Z,979.54
2016-06-15T00:41:24.332Z,979.5
2016-06-15T00:42:24.336Z,979.54
2016-06-15T00:43:24.354Z,979.52
2016-06-15T00:44:24.357Z,979.55
2016-06-15T00:45:24.563Z,979.56
2016-06-15T00:46:24.566Z,979.54
2016-06-15T00:47:24.585Z,979.56
2016-06-15T00:48:24.385Z,979.56
2016-06-15T00:49:24.388Z,979.59
2016-06-15T00:50:24.938Z,979.57
2016-06-15T00:51:24.411Z,979.58
2016-06-15T00:52:24.444Z,979.58
2016-06-15T00:53:24.417Z,979.62
2016-06-15T00:54:24.435Z,979.59
2016-06-15T00:55:24.469Z,979.59
2016-06-15T00:56:24.472Z,979.57
2016-06-15T00:57:24.475Z,979.54
2016-06-15T00:58:24.494Z,979.5
2016-06-15T00:59:24.533Z,979.52
2016-06-15T01:00:24.604Z,979.51
2016-06-15T01:01:24.627Z,979.54
2016-06-15T01:02:24.666Z,979.59
2016-06-15T01:03:24.687Z,979.6
2016-06-15T01:04:24.922Z,979.6
2016-06-15T01:05:24.954Z,979.59
2016-06-15T01:06:24.751Z,979.57
2016-06-15T01:07:24.783Z,979.54
2016-06-15T01:08:25.198Z,979.53
2016-06-15T01:09:24.801Z,979.54
2016-06-15T01:10:24.808Z,979.52
2016-06-15T01:11:24.832Z,979.51
2016-06-15T01:12:24.839Z,979.53
2016-06-15T01:13:24.845Z,979.53
2016-06-15T01:14:24.849Z,979.52
2016-06-15T01:15:24.870Z,979.56
2016-06-15T01:16:24.875Z,979.49
2016-06-15T01:17:24.879Z,979.52
2016-06-15T01:18:24.900Z,979.5
2016-06-15T01:19:24.903Z,979.54
2016-06-15T01:20:25.125Z,979.53
2016-06-15T01:21:24.911Z,979.55
2016-06-15T01:22:25.211Z,979.56
2016-06-15T01:23:24.933Z,979.55
2016-06-15T01:24:24.936Z,979.58
2016-06-15T01:25:24.955Z,979.53
2016-06-15T01:26:24.958Z,979.54
2016-06-15T01:27:24.977Z,979.52
2016-06-15T01:28:24.964Z,979.5
2016-06-15T01:29:24.983Z,979.5
2016-06-15T01:30:24.985Z,979.48
2016-06-15T01:31:24.989Z,979.49
2016-06-15T01:32:25.007Z,979.51
2016-06-15T01:33:25.011Z,979.48
2016-06-15T01:34:25.013Z,979.48
2016-06-15T01:35:25.033Z,979.46
2016-06-15T01:36:25.035Z,979.5
2016-06-15T01:37:25.039Z,979.51
2016-06-15T01:38:25.042Z,979.5
2016-06-15T01:39:25.060Z,979.52
2016-06-15T01:40:25.063Z,979.52
2016-06-15T01:41:25.066Z,979.52
2016-06-15T01:42:25.085Z,979.5
2016-06-15T01:43:25.088Z,979.49
2016-06-15T01:44:25.092Z,979.5
2016-06-15T01:45:25.094Z,979.49
2016-06-15T01:46:25.113Z,979.52
2016-06-15T01:47:25.116Z,979.49
2016-06-15T01:48:25.120Z,979.52
2016-06-15T01:49:25.123Z,979.49
2016-06-15T01:50:25.141Z,979.46
2016-06-15T01:51:25.144Z,979.46
2016-06-15T01:52:25.147Z,979.47
2016-06-15T01:53:25.166Z,979.49
2016-06-15T01:54:25.169Z,979.44
2016-06-15T01:55:25.172Z,979.45
2016-06-15T01:56:25.175Z,979.48
2016-06-15T01:57:25.193Z,979.46
2016-06-15T01:58:25.196Z,979.45
2016-06-15T01:59:25.200Z,979.48
2016-06-15T02:00:25.203Z,979.45
2016-06-15T02:01:25.425Z,979.41
2016-06-15T02:02:25.225Z,979.43
2016-06-15T02:03:25.228Z,979.43
2016-06-15T02:04:25.247Z,979.41
2016-06-15T02:05:25.750Z,979.41
2016-06-15T02:06:25.253Z,979.45
2016-06-15T02:07:25.271Z,979.42
2016-06-15T02:08:25.274Z,979.41
2016-06-15T02:09:25.277Z,979.39
2016-06-15T02:10:25.280Z,979.41
2016-06-15T02:11:25.300Z,979.35
2016-06-15T02:12:25.303Z,979.39
2016-06-15T02:13:25.306Z,979.39
2016-06-15T02:14:25.325Z,979.39
2016-06-15T02:15:25.328Z,979.36
2016-06-15T02:16:25.377Z,979.33
2016-06-15T02:17:25.349Z,979.34
2016-06-15T02:18:25.352Z,979.33
2016-06-15T02:19:25.355Z,979.36
2016-06-15T02:20:25.358Z,979.38
2016-06-15T02:22:25.396Z,979.42
2016-06-15T02:24:25.434Z,979.41
2016-06-15T02:25:25.420Z,979.4
2016-06-15T02:26:25.423Z,979.42
2016-06-15T02:27:25.426Z,979.41
2016-06-15T02:28:25.446Z,979.45
2016-06-15T02:30:25.670Z,979.43
2016-06-15T02:32:25.473Z,979.45
2016-06-15T02:36:25.485Z,979.42
2016-06-15T02:37:25.504Z,979.4
2016-06-15T02:38:25.710Z,979.41
2016-06-15T02:39:25.697Z,979.42
2016-06-15T02:40:25.529Z,979.38
2016-06-15T02:41:25.517Z,979.42
2016-06-15T02:42:25.535Z,979.36
2016-06-15T02:43:25.539Z,979.38
2016-06-15T02:44:25.542Z,979.4
2016-06-15T02:45:25.545Z,979.4
2016-06-15T02:46:25.579Z,979.43
2016-06-15T02:47:25.769Z,979.4
2016-06-15T02:48:25.600Z,979.41
2016-06-15T02:49:25.603Z,979.44
2016-06-15T02:50:25.842Z,979.44
2016-06-15T02:51:25.641Z,979.41
2016-06-15T02:53:25.631Z,979.45
2016-06-15T02:54:25.635Z,979.44
2016-06-15T02:55:25.654Z,979.44
2016-06-15T02:56:25.657Z,979.44
2016-06-15T02:57:25.831Z,979.44
2016-06-15T02:58:25.835Z,979.4
2016-06-15T02:59:25.852Z,979.43
2016-06-15T03:01:25.687Z,979.44
2016-06-15T03:02:25.707Z,979.47
2016-06-15T03:04:25.712Z,979.46
2016-06-15T03:07:25.738Z,979.5
2016-06-15T03:14:25.774Z,979.48
2016-06-15T03:16:26.015Z,979.43
2016-06-15T03:17:25.800Z,979.39
2016-06-15T03:18:25.817Z,979.37
2016-06-15T03:20:25.839Z,979.34
2016-06-15T03:21:25.826Z,979.29
2016-06-15T03:22:25.876Z,979.27
2016-06-15T03:23:26.037Z,979.28
2016-06-15T03:24:25.851Z,979.28
2016-06-15T03:25:25.855Z,979.3
2016-06-15T03:26:25.874Z,979.28
2016-06-15T03:29:25.898Z,979.26
2016-06-15T03:30:26.104Z,979.29
2016-06-15T03:31:26.107Z,979.27
2016-06-15T03:32:25.907Z,979.3
2016-06-15T03:33:25.926Z,979.31
2016-06-15T03:36:26.733Z,979.36
2016-06-15T03:48:26.034Z,979.28
2016-06-15T03:49:26.038Z,979.31
2016-06-15T03:52:26.062Z,979.3
2016-06-15T03:53:26.082Z,979.37
2016-06-15T03:57:26.125Z,979.34
2016-06-15T03:59:26.100Z,979.34
2016-06-15T04:00:26.103Z,979.36
2016-06-15T04:03:26.128Z,979.37
2016-06-15T04:07:26.172Z,979.41
2016-06-15T04:10:26.181Z,979.46
2016-06-15T04:13:26.627Z,979.41
2016-06-15T04:16:26.230Z,979.43
2016-06-15T04:18:26.237Z,979.43
2016-06-15T04:21:26.621Z,979.51
2016-06-15T04:23:26.486Z,979.52
2016-06-15T04:24:26.303Z,979.51
2016-06-15T04:25:26.492Z,979.51
2016-06-15T04:26:26.309Z,979.54
2016-06-15T04:27:26.311Z,979.54
2016-06-15T04:28:26.315Z,979.55
2016-06-15T04:29:26.333Z,979.53
2016-06-15T04:30:26.336Z,979.49
2016-06-15T04:36:26.370Z,979.5
2016-06-15T04:37:26.373Z,979.53
2016-06-15T04:39:26.395Z,979.54
2016-06-15T04:40:26.430Z,979.52
2016-06-15T04:41:26.416Z,979.54
2016-06-15T04:42:26.450Z,979.57
2016-06-15T04:43:26.453Z,979.57
2016-06-15T04:44:26.456Z,979.58
2016-06-15T04:45:26.475Z,979.62
2016-06-15T04:46:26.479Z,979.62
2016-06-15T04:47:26.481Z,979.64
2016-06-15T04:48:26.501Z,979.68
2016-06-15T04:50:26.679Z,979.63
2016-06-15T04:52:26.747Z,979.65
2016-06-15T04:53:26.734Z,979.62
2016-06-15T04:55:26.537Z,979.56
2016-06-15T04:58:26.546Z,979.57
2016-06-15T05:04:26.612Z,979.72
2016-06-15T05:05:26.615Z,979.78
2016-06-15T05:06:26.618Z,979.77
2016-06-15T05:07:26.856Z,979.8
2016-06-15T05:08:26.860Z,979.83
2016-06-15T05:10:26.662Z,979.88
2016-06-15T05:11:26.664Z,979.92
2016-06-15T05:12:26.668Z,979.89
2016-06-15T05:13:26.687Z,979.84
2016-06-15T05:14:26.674Z,979.79
2016-06-15T05:15:27.506Z,979.79
2016-06-15T05:16:26.759Z,979.78
2016-06-15T05:17:26.715Z,979.78
2016-06-15T05:18:27.124Z,979.76
2016-06-15T05:19:26.722Z,979.76
2016-06-15T05:20:26.739Z,979.76
2016-06-15T05:21:26.743Z,979.79
2016-06-15T05:22:26.745Z,979.81
2016-06-15T05:23:26.952Z,979.78
2016-06-15T05:24:26.767Z,979.78
2016-06-15T05:25:26.771Z,979.8
2016-06-15T05:26:26.789Z,979.77
2016-06-15T05:27:26.808Z,979.8
2016-06-15T05:28:26.811Z,979.79
2016-06-15T05:29:26.814Z,979.76
2016-06-15T05:30:26.817Z,979.77
2016-06-15T05:31:26.851Z,979.78
2016-06-15T05:32:26.854Z,979.81
2016-06-15T05:33:26.857Z,979.85
2016-06-15T05:34:26.876Z,979.86
2016-06-15T05:35:26.864Z,979.83
2016-06-15T05:36:26.882Z,979.82
2016-06-15T05:37:26.885Z,979.84
2016-06-15T05:38:27.154Z,979.87
2016-06-15T05:39:26.907Z,979.88
2016-06-15T05:40:26.910Z,979.9
2016-06-15T05:41:26.929Z,979.86
2016-06-15T05:42:27.776Z,979.9
2016-06-15T05:43:26.950Z,979.89
2016-06-15T05:44:26.970Z,979.94
2016-06-15T05:46:26.977Z,979.91
2016-06-15T05:47:26.979Z,979.93
2016-06-15T05:48:27.014Z,979.95
2016-06-15T05:49:27.235Z,979.96
2016-06-15T05:50:27.034Z,979.97
2016-06-15T05:51:27.209Z,980
2016-06-15T05:52:27.041Z,979.99
2016-06-15T05:54:27.047Z,980
2016-06-15T05:55:27.268Z,980.01
2016-06-15T05:56:27.178Z,980
2016-06-15T05:57:27.072Z,980.05
2016-06-15T05:58:27.091Z,980.01
2016-06-15T05:59:27.250Z,980.03
2016-06-15T06:00:27.550Z,980.04
2016-06-15T06:01:27.100Z,980
2016-06-15T06:02:27.322Z,980.02
2016-06-15T06:03:27.840Z,980
2016-06-15T06:04:27.453Z,980.03
2016-06-15T06:05:27.393Z,980.02
2016-06-15T06:06:27.771Z,980.05
2016-06-15T06:07:27.150Z,980.1
2016-06-15T06:08:27.372Z,980.08
2016-06-15T06:09:27.280Z,980.12
2016-06-15T06:10:27.190Z,980.1
2016-06-15T06:11:27.193Z,980.1
2016-06-15T06:12:27.196Z,980.14
2016-06-15T06:13:27.481Z,980.13
2016-06-15T06:14:27.233Z,980.14
2016-06-15T06:15:27.237Z,980.17
2016-06-15T06:16:27.239Z,980.16
2016-06-15T06:17:27.447Z,980.17
2016-06-15T06:18:27.464Z,980.24
2016-06-15T06:19:27.484Z,980.27
2016-06-15T06:20:27.299Z,980.27
2016-06-15T06:21:27.599Z,980.26
2016-06-15T06:22:27.290Z,980.29
2016-06-15T06:23:27.433Z,980.33
2016-06-15T06:24:27.780Z,980.3
2016-06-15T06:25:27.314Z,980.35
2016-06-15T06:26:27.567Z,980.38
2016-06-15T06:27:27.336Z,980.37
2016-06-15T06:28:27.683Z,980.37
2016-06-15T06:29:27.359Z,980.4
2016-06-15T06:30:27.595Z,980.42
2016-06-15T06:32:27.382Z,980.44
2016-06-15T06:33:27.621Z,980.44
2016-06-15T06:34:27.405Z,980.47
2016-06-15T06:35:27.408Z,980.49
2016-06-15T06:36:27.426Z,980.5
2016-06-15T06:37:27.538Z,980.5
2016-06-15T06:38:27.636Z,980.51
2016-06-15T06:39:27.435Z,980.53
2016-06-15T06:40:27.688Z,980.54
2016-06-15T06:41:27.441Z,980.61
2016-06-15T06:42:27.460Z,980.59
2016-06-15T06:43:27.463Z,980.6
2016-06-15T06:44:27.716Z,980.64
2016-06-15T06:45:27.517Z,980.62
2016-06-15T06:46:27.519Z,980.64
2016-06-15T06:47:27.507Z,980.68
2016-06-15T06:48:27.509Z,980.65
2016-06-15T06:49:27.560Z,980.68
2016-06-15T06:50:27.563Z,980.67
2016-06-15T06:54:27.575Z,980.65
2016-06-15T06:55:27.579Z,980.67
2016-06-15T06:56:27.597Z,980.67
2016-06-15T06:57:27.804Z,980.69
2016-06-15T06:59:27.622Z,980.71
2016-06-15T07:00:27.641Z,980.7
2016-06-15T07:01:27.628Z,980.72
2016-06-15T07:02:27.647Z,980.74
2016-06-15T07:05:27.875Z,980.74
2016-06-15T07:06:27.893Z,980.7
2016-06-15T07:07:27.865Z,980.7
2016-06-15T07:08:27.681Z,980.71
2016-06-15T07:09:27.699Z,980.7
2016-06-15T07:10:27.921Z,980.72
2016-06-15T07:11:27.706Z,980.74
2016-06-15T07:12:27.724Z,980.76
2016-06-15T07:13:27.728Z,980.72
2016-06-15T07:14:27.730Z,980.75
2016-06-15T07:15:27.750Z,980.76
2016-06-15T07:18:27.774Z,980.76
2016-06-15T07:19:27.980Z,980.81
2016-06-15T07:20:27.780Z,980.8
2016-06-15T07:21:27.769Z,980.78
2016-06-15T07:22:27.786Z,980.83
2016-06-15T07:23:28.149Z,980.87
2016-06-15T07:25:27.827Z,980.86
2016-06-15T07:27:27.833Z,980.85
2016-06-15T07:28:27.852Z,980.9
2016-06-15T07:31:27.877Z,980.93
2016-06-15T07:32:27.895Z,980.93
2016-06-15T07:33:27.883Z,980.91
2016-06-15T07:35:27.889Z,980.87
2016-06-15T07:36:27.892Z,980.86
2016-06-15T07:37:27.926Z,980.86
2016-06-15T07:41:27.955Z,980.81
2016-06-15T07:43:27.961Z,980.86
2016-06-15T07:44:27.964Z,980.77
2016-06-15T07:45:27.982Z,980.82
2016-06-15T07:46:28.188Z,980.82
2016-06-15T07:48:28.007Z,980.81
2016-06-15T07:49:28.025Z,980.86
2016-06-15T07:51:28.031Z,980.84
2016-06-15T07:52:28.067Z,980.86
2016-06-15T07:53:28.053Z,980.8
2016-06-15T07:54:28.056Z,980.86
2016-06-15T07:55:28.044Z,980.84
2016-06-15T07:56:28.063Z,980.87
2016-06-15T07:57:28.066Z,980.84
2016-06-15T07:58:28.084Z,980.87
2016-06-15T07:59:28.072Z,980.89
2016-06-15T08:00:28.091Z,980.84
2016-06-15T08:01:28.109Z,980.86
2016-06-15T08:02:28.112Z,980.82
2016-06-15T08:03:28.115Z,980.9
2016-06-15T08:04:28.134Z,980.86
2016-06-15T08:05:28.153Z,980.91
2016-06-15T08:06:28.157Z,980.86
2016-06-15T08:07:28.346Z,980.92
2016-06-15T08:08:28.163Z,980.9
2016-06-15T08:09:28.384Z,980.9
2016-06-15T08:11:28.390Z,980.85
2016-06-15T08:12:28.205Z,980.92
2016-06-15T08:13:28.193Z,980.88
2016-06-15T08:14:28.212Z,980.88
2016-06-15T08:15:28.230Z,980.91
2016-06-15T08:16:28.234Z,980.94
2016-06-15T08:17:28.236Z,980.92
2016-06-15T08:18:28.239Z,980.92
2016-06-15T08:19:28.242Z,980.95
2016-06-15T08:20:28.245Z,980.93
2016-06-15T08:21:28.265Z,980.98
2016-06-15T08:22:28.361Z,980.97
2016-06-15T08:23:28.318Z,980.97
2016-06-15T08:24:28.290Z,981
2016-06-15T08:25:28.699Z,981.03
2016-06-15T08:26:28.514Z,981.01
2016-06-15T08:27:28.299Z,981.02
2016-06-15T08:28:28.317Z,981.01
2016-06-15T08:29:28.320Z,981.04
2016-06-15T08:30:28.339Z,981.03
2016-06-15T08:31:28.342Z,981.06
2016-06-15T08:32:28.346Z,981.05
2016-06-15T08:33:28.348Z,981.04
2016-06-15T08:34:28.383Z,981.05
2016-06-15T08:35:28.371Z,981
2016-06-15T08:36:28.577Z,981.07
2016-06-15T08:37:28.595Z,981.06
2016-06-15T08:38:28.394Z,981.1
2016-06-15T08:39:28.695Z,981.1
2016-06-15T08:40:28.620Z,981.09
2016-06-15T08:41:28.420Z,981.11
2016-06-15T08:42:28.423Z,981.11
2016-06-15T08:43:28.426Z,981.15
2016-06-15T08:44:28.444Z,981.12
2016-06-15T08:45:28.448Z,981.17
2016-06-15T08:46:28.450Z,981.17
2016-06-15T08:47:28.470Z,981.16
2016-06-15T08:48:28.644Z,981.15
2016-06-15T08:49:28.475Z,981.14
2016-06-15T08:50:28.495Z,981.15
2016-06-15T08:51:28.497Z,981.18
2016-06-15T08:52:28.516Z,981.17
2016-06-15T08:53:28.518Z,981.19
2016-06-15T08:54:28.522Z,981.15
2016-06-15T08:55:28.572Z,981.14
2016-06-15T08:56:28.544Z,981.18
2016-06-15T08:57:28.547Z,981.15
2016-06-15T08:58:28.550Z,981.18
2016-06-15T08:59:28.569Z,981.19
2016-06-15T09:00:28.650Z,981.18
2016-06-15T09:02:28.704Z,981.2
2016-06-15T09:03:28.675Z,981.2
2016-06-15T09:04:28.600Z,981.24
2016-06-15T09:05:28.634Z,981.22
2016-06-15T09:06:28.622Z,981.23
2016-06-15T09:07:29.281Z,981.23
2016-06-15T09:08:28.707Z,981.2
2016-06-15T09:09:28.662Z,981.22
2016-06-15T09:10:28.665Z,981.23
2016-06-15T09:11:28.669Z,981.23
2016-06-15T09:12:28.687Z,981.21
2016-06-15T09:13:34.704Z,981.18
2016-06-15T09:14:28.684Z,981.2
2016-06-15T09:15:45.268Z,981.16
2016-06-15T09:16:28.705Z,981.19
2016-06-15T09:17:28.724Z,981.21
2016-06-15T09:18:28.775Z,981.24
2016-06-15T09:19:28.746Z,981.18
2016-06-15T09:20:28.952Z,981.18
2016-06-15T09:21:28.971Z,981.21
2016-06-15T09:22:28.973Z,981.22
2016-06-15T09:23:28.821Z,981.23
2016-06-15T09:24:28.979Z,981.17
2016-06-15T09:25:29.015Z,981.21
2016-06-15T09:26:28.829Z,981.19
2016-06-15T09:28:28.852Z,981.21
2016-06-15T09:29:28.927Z,981.18
2016-06-15T09:30:28.852Z,981.23
2016-06-15T09:31:29.261Z,981.23
2016-06-15T09:32:29.297Z,981.23
2016-06-15T09:33:29.550Z,981.26
2016-06-15T09:34:28.864Z,981.21
2016-06-15T09:35:28.884Z,981.22
2016-06-15T09:36:28.902Z,981.23
2016-06-15T09:37:28.904Z,981.25
2016-06-15T09:38:28.907Z,981.23
2016-06-15T09:39:28.942Z,981.27
2016-06-15T09:40:28.930Z,981.27
2016-06-15T09:41:28.933Z,981.3
2016-06-15T09:42:28.936Z,981.33
2016-06-15T09:43:28.955Z,981.31
2016-06-15T09:44:28.973Z,981.33
2016-06-15T09:45:28.977Z,981.31
2016-06-15T09:46:28.979Z,981.33
2016-06-15T09:47:28.982Z,981.37
2016-06-15T09:48:29.251Z,981.34
2016-06-15T09:49:29.005Z,981.36
2016-06-15T09:50:29.038Z,981.37
2016-06-15T09:51:29.042Z,981.39
2016-06-15T09:52:29.076Z,981.35
2016-06-15T09:53:29.579Z,981.33
2016-06-15T09:55:29.085Z,981.35
2016-06-15T09:56:29.073Z,981.35
2016-06-15T09:57:29.091Z,981.32
2016-06-15T09:58:29.297Z,981.34
2016-06-15T09:59:29.301Z,981.33
2016-06-15T10:00:29.116Z,981.28
2016-06-15T10:01:29.135Z,981.25
2016-06-15T10:02:29.341Z,981.24
2016-06-15T10:03:29.406Z,981.24
2016-06-15T10:04:29.600Z,981.21
2016-06-15T10:05:29.518Z,981.25
2016-06-15T10:06:29.905Z,981.19
2016-06-15T10:07:29.683Z,981.19
2016-06-15T10:08:29.381Z,981.2
2016-06-15T10:09:29.522Z,981.17
2016-06-15T10:10:29.446Z,981.19
2016-06-15T10:11:29.462Z,981.2
2016-06-15T10:12:29.480Z,981.23
2016-06-15T10:13:29.529Z,981.28
2016-06-15T10:14:29.574Z,981.31
2016-06-15T10:15:29.582Z,981.3
2016-06-15T10:16:29.590Z,981.31
2016-06-15T10:17:47.786Z,981.31
2016-06-15T10:18:29.591Z,981.33
2016-06-15T10:19:29.614Z,981.35
2016-06-15T10:20:29.619Z,981.39
2016-06-15T10:21:29.624Z,981.38
2016-06-15T10:22:29.879Z,981.34
2016-06-15T10:23:30.102Z,981.38
2016-06-15T10:24:29.669Z,981.52
2016-06-15T10:25:29.673Z,981.48
2016-06-15T10:26:29.692Z,981.49
2016-06-15T10:27:29.929Z,981.53
2016-06-15T10:28:29.730Z,981.58
2016-06-15T10:29:29.734Z,981.56
2016-06-15T10:31:29.943Z,981.63
2016-06-15T10:32:29.947Z,981.61
2016-06-15T10:33:29.762Z,981.61
2016-06-15T10:34:29.766Z,981.53
2016-06-15T10:36:29.897Z,981.55
2016-06-15T10:37:34.979Z,981.48
2016-06-15T10:38:33.872Z,981.51
2016-06-15T10:39:36.078Z,981.64
2016-06-15T10:40:37.270Z,981.64
2016-06-15T10:41:30.882Z,981.71
2016-06-15T10:42:47.869Z,981.74
2016-06-15T10:43:34.216Z,981.76
2016-06-15T10:44:34.110Z,981.74
2016-06-15T10:45:38.878Z,981.76
2016-06-15T10:46:34.132Z,981.76
2016-06-15T10:47:38.041Z,981.72
2016-06-15T10:49:07.434Z,981.71
2016-06-15T10:50:14.660Z,981.65
2016-06-15T10:51:25.038Z,981.67
2016-06-15T10:52:38.838Z,981.66
2016-06-15T10:54:21.875Z,981.69
2016-06-15T10:58:55.809Z,981.64
2016-06-15T10:59:55.891Z,981.63
2016-06-15T11:00:55.847Z,981.59
2016-06-15T11:01:55.913Z,981.61
2016-06-15T11:02:55.900Z,981.61
2016-06-15T11:03:56.184Z,981.6
2016-06-15T11:04:56.094Z,981.61
2016-06-15T11:05:56.300Z,981.54
2016-06-15T11:06:56.023Z,981.49
2016-06-15T11:07:55.931Z,981.58
2016-06-15T11:08:55.934Z,981.59
2016-06-15T11:09:55.953Z,981.6
2016-06-15T11:10:56.034Z,981.59
2016-06-15T11:11:55.975Z,981.61
2016-06-15T11:12:55.994Z,981.54
2016-06-15T11:13:56.012Z,981.52
2016-06-15T11:14:56.030Z,981.51
2016-06-15T11:15:56.878Z,981.5
2016-06-15T11:16:56.115Z,981.51
2016-06-15T11:17:56.181Z,981.48
2016-06-15T11:18:56.372Z,981.38
2016-06-15T11:19:56.171Z,981.28
2016-06-15T11:20:56.222Z,981.27
2016-06-15T11:21:56.225Z,981.38
2016-06-15T11:22:56.117Z,981.41
2016-06-15T11:23:56.214Z,981.4
2016-06-15T11:24:56.359Z,981.36
2016-06-15T11:25:56.361Z,981.4
2016-06-15T11:26:56.162Z,981.42
2016-06-15T11:27:56.180Z,981.42
2016-06-15T11:28:56.385Z,981.42
2016-06-15T11:29:56.436Z,981.38
2016-06-15T11:30:56.439Z,981.37
2016-06-15T11:31:56.302Z,981.41
2016-06-15T11:32:56.258Z,981.48
2016-06-15T11:33:56.261Z,981.5
2016-06-15T11:34:56.295Z,981.48
2016-06-15T11:35:56.299Z,981.45
2016-06-15T11:37:56.742Z,981.23
2016-06-15T11:38:56.323Z,981.21
2016-06-15T11:39:56.451Z,981.29
2016-06-15T11:40:56.626Z,981.32
2016-06-15T11:41:56.364Z,981.38
2016-06-15T11:42:56.726Z,981.37
2016-06-15T11:43:56.386Z,981.28
2016-06-15T11:44:56.748Z,981.23
2016-06-15T11:45:56.923Z,981.22
2016-06-15T11:46:56.521Z,981.15
2016-06-15T11:47:56.944Z,981.14
2016-06-15T11:48:56.463Z,981.14
2016-06-15T11:49:56.530Z,981.1
2016-06-15T11:50:56.563Z,981.2
2016-06-15T11:51:57.364Z,981.26
2016-06-15T11:52:56.539Z,981.4
2016-06-15T11:53:56.526Z,981.47
2016-06-15T11:54:56.732Z,981.45
2016-06-15T11:55:56.781Z,981.51
2016-06-15T11:56:56.644Z,981.47
2016-06-15T11:57:56.647Z,981.48
2016-06-15T11:58:56.666Z,981.44
2016-06-15T11:59:56.592Z,981.44
2016-06-15T12:00:56.969Z,981.47
2016-06-15T12:01:56.832Z,981.47
2016-06-15T12:02:56.663Z,981.46
2016-06-15T12:03:56.838Z,981.44
2016-06-15T12:04:56.747Z,981.45
2016-06-15T12:05:56.734Z,981.44
2016-06-15T12:06:56.707Z,981.47
2016-06-15T12:07:56.724Z,981.47
2016-06-15T12:08:56.853Z,981.44
2016-06-15T12:11:56.768Z,981.39
2016-06-15T12:12:56.771Z,981.34
2016-06-15T12:13:56.993Z,981.38
2016-06-15T12:14:56.825Z,981.39
2016-06-15T12:15:56.813Z,981.42
2016-06-15T12:16:57.237Z,981.43
2016-06-15T12:18:56.853Z,981.38
2016-06-15T12:19:56.872Z,981.4
2016-06-15T12:20:56.890Z,981.36
2016-06-15T12:21:56.893Z,981.35
2016-06-15T12:22:57.239Z,981.33
2016-06-15T12:23:57.212Z,981.34
2016-06-15T12:24:56.980Z,981.33
2016-06-15T12:26:57.033Z,981.33
2016-06-15T12:27:56.989Z,981.31
2016-06-15T12:28:57.305Z,981.31
2016-06-15T12:29:57.278Z,981.28
2016-06-15T12:30:57.062Z,981.24
2016-06-15T12:31:57.049Z,981.27
2016-06-15T12:32:57.051Z,981.27
2016-06-15T12:33:57.070Z,981.24
2016-06-15T12:34:57.152Z,981.24
2016-06-15T12:35:57.108Z,981.22
2016-06-15T12:36:57.110Z,981.26
2016-06-15T12:37:57.130Z,981.24
2016-06-15T12:38:57.148Z,981.2
2016-06-15T12:39:57.151Z,981.19
2016-06-15T12:40:57.390Z,981.21
2016-06-15T12:41:57.298Z,981.2
2016-06-15T12:42:57.270Z,981.16
2016-06-15T12:43:57.288Z,981.16
2016-06-15T12:44:57.699Z,981.15
2016-06-15T12:45:57.280Z,981.19
2016-06-15T12:46:57.267Z,981.17
2016-06-15T12:47:57.286Z,981.21
2016-06-15T12:48:57.303Z,981.21
2016-06-15T12:49:57.589Z,981.22
2016-06-15T12:50:57.342Z,981.15
2016-06-15T12:51:57.329Z,981.14
2016-06-15T12:52:57.348Z,981.11
2016-06-15T12:53:57.382Z,981.08
2016-06-15T12:54:57.401Z,981.09
2016-06-15T12:55:57.403Z,981.01
2016-06-15T12:57:57.503Z,980.97
2016-06-15T12:58:57.445Z,980.94
2016-06-15T12:59:57.588Z,980.89
2016-06-15T13:00:57.513Z,980.88
2016-06-15T13:02:57.504Z,980.86
2016-06-15T13:03:57.741Z,980.88
2016-06-15T13:04:57.728Z,980.86
2016-06-15T13:05:57.716Z,980.86
2016-06-15T13:06:58.203Z,980.83
2016-06-15T13:07:58.331Z,980.91
2016-06-15T13:08:57.600Z,980.88
2016-06-15T13:09:57.744Z,980.9
2016-06-15T13:10:57.621Z,980.91
2016-06-15T13:11:57.718Z,980.9
2016-06-15T13:12:57.816Z,980.86
2016-06-15T13:13:57.865Z,980.86
2016-06-15T13:14:57.697Z,980.85
2016-06-15T13:15:57.825Z,980.84
2016-06-15T13:16:57.781Z,980.85
2016-06-15T13:17:57.784Z,980.85
2016-06-15T13:18:57.849Z,980.8
2016-06-15T13:19:57.759Z,980.82
2016-06-15T13:21:57.843Z,980.82
2016-06-15T13:22:58.252Z,980.81
2016-06-15T13:23:57.912Z,980.81
2016-06-15T13:24:57.836Z,980.81
2016-06-15T13:26:57.968Z,980.82
2016-06-15T13:27:58.081Z,980.82
2016-06-15T13:28:57.926Z,980.84
2016-06-15T13:29:58.118Z,980.8
2016-06-15T13:30:57.980Z,980.75
2016-06-15T13:31:57.952Z,980.76
2016-06-15T13:32:58.002Z,980.75
2016-06-15T13:33:57.989Z,980.71
2016-06-15T13:34:57.993Z,980.71
2016-06-15T13:35:57.995Z,980.69
2016-06-15T13:36:58.015Z,980.72
2016-06-15T13:37:58.283Z,980.73
2016-06-15T13:38:58.255Z,980.74
2016-06-15T13:39:58.132Z,980.73
2016-06-15T13:40:58.136Z,980.75
2016-06-15T13:41:58.092Z,980.76
2016-06-15T13:42:58.111Z,980.72
2016-06-15T13:43:58.255Z,980.75
2016-06-15T13:44:58.180Z,980.75
2016-06-15T13:45:58.167Z,980.8
2016-06-15T13:47:58.205Z,980.8
2016-06-15T13:48:58.192Z,980.8
2016-06-15T13:49:58.227Z,980.81
2016-06-15T13:50:58.261Z,980.81
2016-06-15T13:51:58.466Z,980.81
2016-06-15T13:52:58.408Z,980.8
2016-06-15T13:53:58.286Z,980.74
2016-06-15T13:54:58.289Z,980.71
2016-06-15T13:55:58.729Z,980.73
2016-06-15T13:56:58.326Z,980.71
2016-06-15T13:57:58.610Z,980.72
2016-06-15T13:58:58.363Z,980.69
2016-06-15T13:59:58.382Z,980.69
2016-06-15T14:00:58.385Z,980.69
2016-06-15T14:01:58.388Z,980.65
2016-06-15T14:02:58.423Z,980.63
2016-06-15T14:03:58.456Z,980.66
2016-06-15T14:04:58.679Z,980.61
2016-06-15T14:05:58.463Z,980.61
2016-06-15T14:06:58.466Z,980.64
2016-06-15T14:07:58.782Z,980.59
2016-06-15T14:08:58.503Z,980.59
2016-06-15T14:09:58.538Z,980.58
2016-06-15T14:10:58.572Z,980.6
2016-06-15T14:11:58.575Z,980.59
2016-06-15T14:13:58.597Z,980.59
2016-06-15T14:14:58.601Z,980.61
2016-06-15T14:16:58.622Z,980.68
2016-06-15T14:17:58.860Z,980.66
2016-06-15T14:18:58.659Z,980.62
2016-06-15T14:19:58.678Z,980.65
2016-06-15T14:20:58.681Z,980.6
2016-06-15T14:22:58.718Z,980.61
2016-06-15T14:23:58.784Z,980.62
2016-06-15T14:24:58.990Z,980.58
2016-06-15T14:25:58.760Z,980.6
2016-06-15T14:26:58.793Z,980.55
2016-06-15T14:27:58.811Z,980.56
2016-06-15T14:28:58.815Z,980.56
2016-06-15T14:29:59.318Z,980.56
2016-06-15T14:30:59.055Z,980.5
2016-06-15T14:31:58.871Z,980.47
2016-06-15T14:32:59.108Z,980.46
2016-06-15T14:33:58.893Z,980.43